createdAt,value
2019-01-19T00:00:20.297Z,33.30
2019-01-19T00:01:20.287Z,34.70
2019-01-19T00:02:20.288Z,33.20
2019-01-19T00:03:20.271Z,33.10
2019-01-19T00:04:20.274Z,33.00
2019-01-19T00:05:20.254Z,34.30
2019-01-19T00:06:20.233Z,32.70
2019-01-19T00:07:20.225Z,34.40
2019-01-19T00:08:20.218Z,32.80
2019-01-19T00:09:20.941Z,36.40
2019-01-19T00:10:20.186Z,34.60
2019-01-19T00:11:20.204Z,33.80
2019-01-19T00:12:20.174Z,35.10
2019-01-19T00:13:20.157Z,32.70
2019-01-19T00:14:20.147Z,33.20
2019-01-19T00:15:20.163Z,34.80
2019-01-19T00:16:20.125Z,34.30
2019-01-19T00:17:20.114Z,33.30
2019-01-19T00:18:20.109Z,37.80
2019-01-19T00:19:20.096Z,31.10
2019-01-19T00:20:20.105Z,33.80
2019-01-19T00:21:20.072Z,35.00
2019-01-19T00:22:20.056Z,33.60
2019-01-19T00:23:20.040Z,35.80
2019-01-19T00:24:20.032Z,32.00
2019-01-19T00:25:20.050Z,31.70
2019-01-19T00:26:20.016Z,34.10
2019-01-19T00:27:19.997Z,33.20
2019-01-19T00:28:19.990Z,32.10
2019-01-19T00:29:19.980Z,32.30
2019-01-19T00:30:19.990Z,31.10
2019-01-19T00:31:19.961Z,34.20
2019-01-19T00:32:19.959Z,31.20
2019-01-19T00:33:19.938Z,33.60
2019-01-19T00:34:19.929Z,34.50
2019-01-19T00:35:19.956Z,33.50
2019-01-19T00:36:19.900Z,34.90
2019-01-19T00:37:19.890Z,32.70
2019-01-19T00:38:19.879Z,33.60
2019-01-19T00:39:19.871Z,33.80
2019-01-19T00:40:19.855Z,36.60
2019-01-19T00:41:19.883Z,32.20
2019-01-19T00:42:19.840Z,37.10
2019-01-19T00:43:19.838Z,32.10
2019-01-19T00:44:19.811Z,33.90
2019-01-19T00:45:19.818Z,34.00
2019-01-19T00:46:19.822Z,36.70
2019-01-19T00:47:19.786Z,33.20
2019-01-19T00:48:19.772Z,33.60
2019-01-19T00:49:19.763Z,33.30
2019-01-19T00:50:19.746Z,32.00
2019-01-19T00:51:19.774Z,32.20
2019-01-19T00:52:19.730Z,31.90
2019-01-19T00:53:19.729Z,37.90
2019-01-19T00:54:19.705Z,31.70
2019-01-19T00:55:19.697Z,38.10
2019-01-19T00:56:19.719Z,32.30
2019-01-19T00:57:19.679Z,34.00
2019-01-19T00:58:19.670Z,34.60
2019-01-19T00:59:19.657Z,30.50
2019-01-19T01:00:19.646Z,31.50
2019-01-19T01:01:19.660Z,33.40
2019-01-19T01:02:19.619Z,32.70
2019-01-19T01:03:19.636Z,30.10
2019-01-19T01:04:19.597Z,30.40
2019-01-19T01:05:25.210Z,31.20
2019-01-19T01:06:20.599Z,31.40
2019-01-19T01:07:19.565Z,31.90
2019-01-19T01:08:19.552Z,30.80
2019-01-19T01:09:19.549Z,30.90
2019-01-19T01:10:19.533Z,29.80
2019-01-19T01:11:19.550Z,30.60
2019-01-19T01:12:19.512Z,30.70
2019-01-19T01:13:19.498Z,33.60
2019-01-19T01:14:19.502Z,30.20
2019-01-19T01:15:19.481Z,33.50
2019-01-19T01:16:19.481Z,31.10
2019-01-19T01:17:19.481Z,33.80
2019-01-19T01:18:19.450Z,33.00
2019-01-19T01:19:19.437Z,29.90
2019-01-19T01:20:19.422Z,32.00
2019-01-19T01:21:19.448Z,31.30
2019-01-19T01:22:19.415Z,32.90
2019-01-19T01:23:19.392Z,30.60
2019-01-19T01:24:19.380Z,29.40
2019-01-19T01:25:19.370Z,33.10
2019-01-19T01:26:19.958Z,33.60
2019-01-19T01:27:19.345Z,30.80
2019-01-19T01:28:19.344Z,33.00
2019-01-19T01:29:19.321Z,35.70
2019-01-19T01:30:19.310Z,33.60
2019-01-19T01:31:19.332Z,30.20
2019-01-19T01:32:19.297Z,31.00
2019-01-19T01:33:19.277Z,32.90
2019-01-19T01:34:19.279Z,29.50
2019-01-19T01:35:19.253Z,34.20
2019-01-19T01:36:19.257Z,31.10
2019-01-19T01:37:19.272Z,31.60
2019-01-19T01:38:19.233Z,31.80
2019-01-19T01:39:19.223Z,33.00
2019-01-19T01:40:19.208Z,34.40
2019-01-19T01:41:19.187Z,30.70
2019-01-19T01:42:19.211Z,29.70
2019-01-19T01:43:19.178Z,30.90
2019-01-19T01:44:19.164Z,28.40
2019-01-19T01:45:19.163Z,30.40
2019-01-19T01:46:19.144Z,31.60
2019-01-19T01:47:19.982Z,30.70
2019-01-19T01:48:19.123Z,35.30
2019-01-19T01:49:19.109Z,32.10
2019-01-19T01:50:19.106Z,29.80
2019-01-19T01:51:19.088Z,31.20
2019-01-19T01:52:19.104Z,31.70
2019-01-19T01:53:19.111Z,32.10
2019-01-19T01:54:19.071Z,28.90
2019-01-19T01:55:19.039Z,30.70
2019-01-19T01:56:19.026Z,29.10
2019-01-19T01:57:19.983Z,30.40
2019-01-19T01:58:19.013Z,30.70
2019-01-19T01:59:18.995Z,30.40
2019-01-19T02:00:19.065Z,31.30
2019-01-19T02:01:18.991Z,31.70
2019-01-19T02:02:19.018Z,33.40
2019-01-19T02:03:18.987Z,31.50
2019-01-19T02:04:18.944Z,29.00
2019-01-19T02:05:18.935Z,32.00
2019-01-19T02:06:18.934Z,31.90
2019-01-19T02:07:18.948Z,31.90
2019-01-19T02:08:18.947Z,28.60
2019-01-19T02:09:18.927Z,31.90
2019-01-19T02:10:18.879Z,29.80
2019-01-19T02:11:18.873Z,29.70
2019-01-19T02:12:18.855Z,30.00
2019-01-19T02:13:18.887Z,30.00
2019-01-19T02:14:18.861Z,31.20
2019-01-19T02:15:18.847Z,30.60
2019-01-19T02:16:18.834Z,32.20
2019-01-19T02:17:18.828Z,30.80
2019-01-19T02:18:18.973Z,29.80
2019-01-19T02:19:18.834Z,27.10
2019-01-19T02:20:18.795Z,28.20
2019-01-19T02:21:18.747Z,30.70
2019-01-19T02:22:18.776Z,31.80
2019-01-19T02:23:18.758Z,30.10
2019-01-19T02:24:18.738Z,31.20
2019-01-19T02:25:18.742Z,28.70
2019-01-19T02:26:18.761Z,32.20
2019-01-19T02:27:18.701Z,30.20
2019-01-19T02:28:18.720Z,30.60
2019-01-19T02:29:18.694Z,30.30
2019-01-19T02:30:18.657Z,29.30
2019-01-19T02:31:18.678Z,28.00
2019-01-19T02:32:18.628Z,30.60
2019-01-19T02:33:18.623Z,32.10
2019-01-19T02:34:18.654Z,29.60
2019-01-19T02:35:18.623Z,33.20
2019-01-19T02:36:18.628Z,31.20
2019-01-19T02:37:18.581Z,29.70
2019-01-19T02:38:18.576Z,31.40
2019-01-19T02:39:18.591Z,29.60
2019-01-19T02:40:18.568Z,30.80
2019-01-19T02:41:18.544Z,31.20
2019-01-19T02:42:18.652Z,29.10
2019-01-19T02:43:18.539Z,32.00
2019-01-19T02:44:18.536Z,31.00
2019-01-19T02:45:18.535Z,31.20
2019-01-19T02:46:18.511Z,31.30
2019-01-19T02:47:18.473Z,28.80
2019-01-19T02:48:18.481Z,28.40
2019-01-19T02:49:18.599Z,29.40
2019-01-19T02:50:18.468Z,30.90
2019-01-19T02:51:18.444Z,27.60
2019-01-19T02:52:18.468Z,29.30
2019-01-19T02:53:18.424Z,30.10
2019-01-19T02:54:18.454Z,30.10
2019-01-19T02:55:18.452Z,26.40
2019-01-19T02:56:18.429Z,29.90
2019-01-19T02:57:18.376Z,29.90
2019-01-19T02:58:18.346Z,29.90
2019-01-19T02:59:18.424Z,28.40
2019-01-19T03:00:18.349Z,30.20
2019-01-19T03:01:18.364Z,28.40
2019-01-19T03:02:18.315Z,29.70
2019-01-19T03:03:18.294Z,31.70
2019-01-19T03:04:18.305Z,30.60
2019-01-19T03:05:18.298Z,28.50
2019-01-19T03:06:18.286Z,28.60
2019-01-19T03:07:18.329Z,29.00
2019-01-19T03:08:18.241Z,30.80
2019-01-19T03:09:18.248Z,31.60
2019-01-19T03:10:18.263Z,29.30
2019-01-19T03:11:18.215Z,28.30
2019-01-19T03:12:18.248Z,31.30
2019-01-19T03:13:18.201Z,29.20
2019-01-19T03:14:18.178Z,31.60
2019-01-19T03:15:18.265Z,28.70
2019-01-19T03:16:18.168Z,30.10
2019-01-19T03:17:18.178Z,32.50
2019-01-19T03:18:18.153Z,30.50
2019-01-19T03:19:18.123Z,30.30
2019-01-19T03:20:18.169Z,27.90
2019-01-19T03:21:18.122Z,31.10
2019-01-19T03:22:19.523Z,31.50
2019-01-19T03:23:18.125Z,27.20
2019-01-19T03:24:18.077Z,29.50
2019-01-19T03:25:18.149Z,29.30
2019-01-19T03:26:18.057Z,27.00
2019-01-19T03:27:18.046Z,29.00
2019-01-19T03:28:18.048Z,30.10
2019-01-19T03:29:18.113Z,31.30
2019-01-19T03:30:18.088Z,30.30
2019-01-19T03:31:18.061Z,32.70
2019-01-19T03:32:18.053Z,29.10
2019-01-19T03:33:18.000Z,29.50
2019-01-19T03:34:17.979Z,30.40
2019-01-19T03:35:17.973Z,31.10
2019-01-19T03:36:19.485Z,30.40
2019-01-19T03:37:17.929Z,30.20
2019-01-19T03:38:17.942Z,27.90
2019-01-19T03:39:17.925Z,29.90
2019-01-19T03:40:17.896Z,29.50
2019-01-19T03:41:17.951Z,31.20
2019-01-19T03:42:17.891Z,30.30
2019-01-19T03:43:17.874Z,29.80
2019-01-19T03:44:17.868Z,28.20
2019-01-19T03:45:17.893Z,28.50
2019-01-19T03:46:17.859Z,26.80
2019-01-19T03:47:17.961Z,28.20
2019-01-19T03:48:17.809Z,28.20
2019-01-19T03:49:17.792Z,28.70
2019-01-19T03:50:17.792Z,27.30
2019-01-19T03:51:17.810Z,29.10
2019-01-19T03:52:17.840Z,26.50
2019-01-19T03:53:17.819Z,29.40
2019-01-19T03:54:17.744Z,25.40
2019-01-19T03:55:17.741Z,29.10
2019-01-19T03:56:17.986Z,26.20
2019-01-19T03:57:17.749Z,29.60
2019-01-19T03:58:17.708Z,27.20
2019-01-19T03:59:17.698Z,29.30
2019-01-19T04:00:17.680Z,27.50
2019-01-19T04:01:17.716Z,28.80
2019-01-19T04:02:17.704Z,25.70
2019-01-19T04:03:17.757Z,26.30
2019-01-19T04:04:17.632Z,25.90
2019-01-19T04:05:17.661Z,25.70
2019-01-19T04:06:17.620Z,26.20
2019-01-19T04:07:17.970Z,27.70
2019-01-19T04:08:17.602Z,27.50
2019-01-19T04:09:17.584Z,26.90
2019-01-19T04:10:17.568Z,27.70
2019-01-19T04:11:17.596Z,25.50
2019-01-19T04:12:17.593Z,26.20
2019-01-19T04:13:17.570Z,26.90
2019-01-19T04:14:17.573Z,25.50
2019-01-19T04:15:17.520Z,28.30
2019-01-19T04:16:17.535Z,29.00
2019-01-19T04:17:17.974Z,28.10
2019-01-19T04:18:17.490Z,28.70
2019-01-19T04:19:17.483Z,27.80
2019-01-19T04:20:17.470Z,25.60
2019-01-19T04:21:17.505Z,25.60
2019-01-19T04:22:17.490Z,28.70
2019-01-19T04:23:17.480Z,28.40
2019-01-19T04:24:17.424Z,24.40
2019-01-19T04:25:17.458Z,27.00
2019-01-19T04:26:17.443Z,27.40
2019-01-19T04:27:17.391Z,28.80
2019-01-19T04:28:17.415Z,27.70
2019-01-19T04:29:17.371Z,26.60
2019-01-19T04:30:17.383Z,28.10
2019-01-19T04:31:17.358Z,25.80
2019-01-19T04:32:17.350Z,26.50
2019-01-19T04:33:17.349Z,27.60
2019-01-19T04:34:17.323Z,26.70
2019-01-19T04:35:17.304Z,29.20
2019-01-19T04:36:21.680Z,29.20
2019-01-19T04:37:17.282Z,24.60
2019-01-19T04:38:17.291Z,25.40
2019-01-19T04:39:17.282Z,24.60
2019-01-19T04:40:17.287Z,26.10
2019-01-19T04:41:17.243Z,24.90
2019-01-19T04:42:17.231Z,23.30
2019-01-19T04:43:17.241Z,26.80
2019-01-19T04:44:17.258Z,23.50
2019-01-19T04:45:17.201Z,26.20
2019-01-19T04:46:17.187Z,25.10
2019-01-19T04:47:17.193Z,25.60
2019-01-19T04:48:17.189Z,26.00
2019-01-19T04:49:17.161Z,22.20
2019-01-19T04:50:17.152Z,23.20
2019-01-19T04:51:17.146Z,24.20
2019-01-19T04:52:17.136Z,25.70
2019-01-19T04:53:17.147Z,22.70
2019-01-19T04:54:17.105Z,21.70
2019-01-19T04:55:17.092Z,22.90
2019-01-19T04:56:17.084Z,25.50
2019-01-19T04:57:17.074Z,22.00
2019-01-19T04:58:18.013Z,21.30
2019-01-19T04:59:17.050Z,21.90
2019-01-19T05:00:17.944Z,24.30
2019-01-19T05:01:17.027Z,24.40
2019-01-19T05:02:17.019Z,21.10
2019-01-19T05:03:17.039Z,24.90
2019-01-19T05:04:17.001Z,24.30
2019-01-19T05:05:16.976Z,24.40
2019-01-19T05:06:16.976Z,22.10
2019-01-19T05:07:16.961Z,22.40
2019-01-19T05:08:16.969Z,19.90
2019-01-19T05:09:16.941Z,22.90
2019-01-19T05:10:16.929Z,23.00
2019-01-19T05:11:16.926Z,21.70
2019-01-19T05:12:16.908Z,21.50
2019-01-19T05:13:16.896Z,20.60
2019-01-19T05:14:16.907Z,21.30
2019-01-19T05:15:16.922Z,19.70
2019-01-19T05:16:16.883Z,22.30
2019-01-19T05:17:16.853Z,20.70
2019-01-19T05:18:16.838Z,21.00
2019-01-19T05:19:16.866Z,21.90
2019-01-19T05:20:16.825Z,24.60
2019-01-19T05:21:16.811Z,21.30
2019-01-19T05:22:16.798Z,21.90
2019-01-19T05:23:16.788Z,19.20
2019-01-19T05:24:16.814Z,21.10
2019-01-19T05:25:16.766Z,19.90
2019-01-19T05:26:16.773Z,20.60
2019-01-19T05:27:16.754Z,21.50
2019-01-19T05:28:16.739Z,19.30
2019-01-19T05:29:16.719Z,22.00
2019-01-19T05:30:16.729Z,18.50
2019-01-19T05:31:16.704Z,17.50
2019-01-19T05:32:16.684Z,20.30
2019-01-19T05:33:16.720Z,21.10
2019-01-19T05:34:16.686Z,20.50
2019-01-19T05:35:16.678Z,18.70
2019-01-19T05:36:16.648Z,21.50
2019-01-19T05:37:16.640Z,21.00
2019-01-19T05:38:16.630Z,18.40
2019-01-19T05:39:16.622Z,20.10
2019-01-19T05:40:16.674Z,21.60
2019-01-19T05:41:16.599Z,21.90
2019-01-19T05:42:16.590Z,20.40
2019-01-19T05:43:16.588Z,20.20
2019-01-19T05:44:16.561Z,18.00
2019-01-19T05:45:16.584Z,20.40
2019-01-19T05:46:21.392Z,18.10
2019-01-19T05:47:17.557Z,19.40
2019-01-19T05:48:16.519Z,19.90
2019-01-19T05:49:16.518Z,20.10
2019-01-19T05:50:17.038Z,19.70
2019-01-19T05:51:16.498Z,18.60
2019-01-19T05:52:16.507Z,18.90
2019-01-19T05:53:16.484Z,19.10
2019-01-19T05:54:16.472Z,18.90
2019-01-19T05:55:16.495Z,19.80
2019-01-19T05:56:16.526Z,18.90
2019-01-19T05:57:16.484Z,20.80
2019-01-19T05:58:16.437Z,22.00
2019-01-19T05:59:16.450Z,19.40
2019-01-19T06:00:16.400Z,22.30
2019-01-19T06:01:16.459Z,21.70
2019-01-19T06:02:16.381Z,21.20
2019-01-19T06:03:16.363Z,21.00
2019-01-19T06:04:16.350Z,18.10
2019-01-19T06:05:16.358Z,18.20
2019-01-19T06:06:16.349Z,20.80
2019-01-19T06:07:16.320Z,22.00
2019-01-19T06:08:16.317Z,21.70
2019-01-19T06:09:16.301Z,19.90
2019-01-19T06:10:16.310Z,19.80
2019-01-19T06:11:16.311Z,21.80
2019-01-19T06:12:16.328Z,20.50
2019-01-19T06:13:16.247Z,23.80
2019-01-19T06:14:16.252Z,19.50
2019-01-19T06:15:16.261Z,21.90
2019-01-19T06:16:16.248Z,20.90
2019-01-19T06:17:16.209Z,20.80
2019-01-19T06:18:16.245Z,21.00
2019-01-19T06:19:16.200Z,19.20
2019-01-19T06:20:16.176Z,21.00
2019-01-19T06:21:16.196Z,20.80
2019-01-19T06:22:16.170Z,19.90
2019-01-19T06:23:16.147Z,22.60
2019-01-19T06:24:16.140Z,19.90
2019-01-19T06:25:16.277Z,19.50
2019-01-19T06:26:16.129Z,18.30
2019-01-19T06:27:16.139Z,19.90
2019-01-19T06:28:16.099Z,20.90
2019-01-19T06:29:16.081Z,19.40
2019-01-19T06:30:16.075Z,19.20
2019-01-19T10:05:04.311Z,24.70
2019-01-19T10:05:37.290Z,12.40
2019-01-19T10:06:37.270Z,14.70
2019-01-19T10:07:37.263Z,13.50
2019-01-19T10:08:37.250Z,14.50
2019-01-19T10:09:37.240Z,12.40
2019-01-19T10:10:38.778Z,12.80
2019-01-19T10:11:37.217Z,14.40
2019-01-19T10:12:37.206Z,12.80
2019-01-19T10:13:37.197Z,12.50
2019-01-19T10:14:37.184Z,12.50
2019-01-19T10:15:37.192Z,12.00
2019-01-19T10:16:37.161Z,14.00
2019-01-19T10:17:37.154Z,12.50
2019-01-19T10:18:37.139Z,11.20
2019-01-19T10:19:37.130Z,13.90
2019-01-19T10:20:37.139Z,13.40
2019-01-19T10:21:37.109Z,11.50
2019-01-19T10:22:37.095Z,14.50
2019-01-19T10:23:37.085Z,13.30
2019-01-19T10:24:37.076Z,14.40
2019-01-19T10:25:37.086Z,14.00
2019-01-19T10:26:37.052Z,12.20
2019-01-19T10:27:37.528Z,10.30
2019-01-19T10:28:37.029Z,16.20
2019-01-19T10:29:37.017Z,11.10
2019-01-19T10:30:37.030Z,13.40
2019-01-19T10:31:36.996Z,11.20
2019-01-19T10:32:36.988Z,14.50
2019-01-19T10:33:36.973Z,12.50
2019-01-19T10:34:36.964Z,13.40
2019-01-19T10:35:36.996Z,12.70
2019-01-19T10:36:36.941Z,13.50
2019-01-19T10:37:36.933Z,15.80
2019-01-19T10:38:36.919Z,11.90
2019-01-19T10:39:36.909Z,12.90
2019-01-19T10:40:36.900Z,9.50
2019-01-19T10:41:40.882Z,14.10
2019-01-19T10:42:36.874Z,12.00
2019-01-19T10:43:36.864Z,13.30
2019-01-19T10:44:36.855Z,11.50
2019-01-19T10:45:36.841Z,11.80
2019-01-19T10:46:36.852Z,14.60
2019-01-19T10:47:36.822Z,13.40
2019-01-19T10:48:36.810Z,11.20
2019-01-19T10:49:36.799Z,11.30
2019-01-19T10:50:36.788Z,12.80
2019-01-19T10:51:36.802Z,12.60
2019-01-19T10:52:36.768Z,9.80
2019-01-19T10:53:36.755Z,10.00
2019-01-19T10:54:36.742Z,10.90
2019-01-19T10:55:36.732Z,14.30
2019-01-19T10:56:36.741Z,12.80
2019-01-19T10:57:36.712Z,11.40
2019-01-19T10:58:36.699Z,12.00
2019-01-19T10:59:36.691Z,11.50
2019-01-19T11:00:36.677Z,15.90
2019-01-19T11:01:36.688Z,10.50
2019-01-19T11:02:36.660Z,11.00
2019-01-19T11:03:36.649Z,12.40
2019-01-19T11:04:36.634Z,10.90
2019-01-19T11:05:36.623Z,10.10
2019-01-19T11:06:36.637Z,11.10
2019-01-19T11:07:36.601Z,11.30
2019-01-19T11:08:36.591Z,14.30
2019-01-19T11:09:36.580Z,10.70
2019-01-19T11:10:36.570Z,9.70
2019-01-19T11:11:37.281Z,11.70
2019-01-19T11:12:36.548Z,10.50
2019-01-19T11:13:36.558Z,11.50
2019-01-19T11:14:36.525Z,11.50
2019-01-19T11:15:36.517Z,11.00
2019-01-19T11:16:36.527Z,13.10
2019-01-19T11:17:36.492Z,10.70
2019-01-19T11:18:36.481Z,12.90
2019-01-19T11:19:36.474Z,9.40
2019-01-19T11:20:36.465Z,11.50
2019-01-19T11:21:36.472Z,11.70
2019-01-19T11:22:36.438Z,8.30
2019-01-19T11:23:39.827Z,12.10
2019-01-19T11:24:36.417Z,10.50
2019-01-19T11:25:36.409Z,10.30
2019-01-19T11:26:36.425Z,11.20
2019-01-19T11:27:36.385Z,9.70
2019-01-19T11:28:36.391Z,10.40
2019-01-19T11:29:36.367Z,9.60
2019-01-19T11:30:36.354Z,9.10
2019-01-19T11:31:36.348Z,10.70
2019-01-19T11:32:36.360Z,9.10
2019-01-19T11:33:36.323Z,12.10
2019-01-19T11:34:36.313Z,10.10
2019-01-19T11:35:36.306Z,11.10
2019-01-19T11:36:36.313Z,10.30
2019-01-19T11:37:36.275Z,12.10
2019-01-19T11:38:36.265Z,9.40
2019-01-19T11:39:36.255Z,11.40
2019-01-19T11:40:36.261Z,8.90
2019-01-19T11:41:36.253Z,11.80
2019-01-19T11:42:36.219Z,10.10
2019-01-19T11:43:36.208Z,11.30
2019-01-19T11:44:36.201Z,11.10
2019-01-19T11:45:36.188Z,10.80
2019-01-19T11:46:36.222Z,12.60
2019-01-19T11:47:36.165Z,8.90
2019-01-19T11:48:36.156Z,9.60
2019-01-19T11:49:36.142Z,9.90
2019-01-19T11:50:36.137Z,13.40
2019-01-19T11:51:36.123Z,11.00
2019-01-19T11:52:36.135Z,12.20
2019-01-19T11:53:36.108Z,9.80
2019-01-19T11:54:36.092Z,9.60
2019-01-19T11:55:36.085Z,13.60
2019-01-19T11:56:36.069Z,11.10
2019-01-19T11:57:36.076Z,10.70
2019-01-19T11:58:36.047Z,11.50
2019-01-19T11:59:36.038Z,10.20
2019-01-19T12:00:36.026Z,11.00
2019-01-19T12:01:36.012Z,10.70
2019-01-19T12:02:37.069Z,9.50
2019-01-19T12:03:35.991Z,11.20
2019-01-19T12:04:36.024Z,11.60
2019-01-19T12:05:35.971Z,11.70
2019-01-19T12:06:35.958Z,12.50
2019-01-19T12:07:35.968Z,13.90
2019-01-19T12:08:35.936Z,9.40
2019-01-19T12:09:35.931Z,11.40
2019-01-19T12:10:35.915Z,10.10
2019-01-19T12:11:35.903Z,7.40
2019-01-19T12:12:35.916Z,9.40
2019-01-19T12:13:35.882Z,11.80
2019-01-19T12:14:35.871Z,9.80
2019-01-19T12:15:35.861Z,9.50
2019-01-19T12:16:35.855Z,10.70
2019-01-19T12:17:35.860Z,14.30
2019-01-19T12:18:35.827Z,9.50
2019-01-19T12:19:35.815Z,10.30
2019-01-19T12:20:35.807Z,12.00
2019-01-19T12:21:35.796Z,10.40
2019-01-19T12:22:36.288Z,12.00
2019-01-19T12:23:35.779Z,8.00
2019-01-19T12:24:35.763Z,9.50
2019-01-19T12:25:36.723Z,7.70
2019-01-19T12:26:35.744Z,7.60
2019-01-19T12:27:35.734Z,8.90
2019-01-19T12:28:35.750Z,14.00
2019-01-19T12:29:35.708Z,10.10
2019-01-19T12:30:35.699Z,9.60
2019-01-19T12:31:35.686Z,9.00
2019-01-19T12:32:35.674Z,8.50
2019-01-19T12:33:35.688Z,8.40
2019-01-19T12:34:35.662Z,9.50
2019-01-19T12:35:35.652Z,8.00
2019-01-19T12:36:35.638Z,9.80
2019-01-19T12:37:35.623Z,8.50
2019-01-19T12:38:35.634Z,9.30
2019-01-19T12:39:35.602Z,11.00
2019-01-19T12:40:35.591Z,9.60
2019-01-19T12:41:35.851Z,8.70
2019-01-19T12:42:35.566Z,7.80
2019-01-19T12:43:35.578Z,8.20
2019-01-19T12:44:35.544Z,7.50
2019-01-19T12:45:35.534Z,6.60
2019-01-19T12:46:35.525Z,8.00
2019-01-19T12:47:35.511Z,7.60
2019-01-19T12:48:36.294Z,8.40
2019-01-19T12:49:35.488Z,8.80
2019-01-19T12:50:35.480Z,9.20
2019-01-19T12:51:35.475Z,9.10
2019-01-19T12:52:35.472Z,11.00
2019-01-19T12:53:35.476Z,8.50
2019-01-19T12:54:35.436Z,9.10
2019-01-19T12:55:35.427Z,9.90
2019-01-19T12:56:35.415Z,11.80
2019-01-19T12:57:35.406Z,8.50
2019-01-19T12:58:35.393Z,6.80
2019-01-19T12:59:35.406Z,8.30
2019-01-19T13:00:35.370Z,9.60
2019-01-19T13:01:35.358Z,9.30
2019-01-19T13:02:35.348Z,9.00
2019-01-19T13:03:35.342Z,6.50
2019-01-19T13:04:35.352Z,7.30
2019-01-19T13:05:35.321Z,9.10
2019-01-19T13:06:35.308Z,8.40
2019-01-19T13:07:35.296Z,7.90
2019-01-19T13:08:35.283Z,9.40
2019-01-19T13:09:36.803Z,9.50
2019-01-19T13:10:35.260Z,10.30
2019-01-19T13:11:35.249Z,7.60
2019-01-19T13:12:35.239Z,9.20
2019-01-19T13:13:35.227Z,9.20
2019-01-19T13:14:35.232Z,9.00
2019-01-19T13:15:35.215Z,10.10
2019-01-19T13:16:35.195Z,9.40
2019-01-19T13:17:35.189Z,8.40
2019-01-19T13:18:35.173Z,7.40
2019-01-19T13:19:36.799Z,8.20
2019-01-19T13:20:35.150Z,7.30
2019-01-19T13:21:35.143Z,8.10
2019-01-19T13:22:35.129Z,8.90
2019-01-19T13:23:35.116Z,7.50
2019-01-19T13:24:35.137Z,7.00
2019-01-19T13:25:35.093Z,9.20
2019-01-19T13:26:35.086Z,8.30
2019-01-19T13:27:35.077Z,7.90
2019-01-19T13:28:35.064Z,6.40
2019-01-19T13:29:35.105Z,11.90
2019-01-19T13:30:35.042Z,10.40
2019-01-19T13:31:35.117Z,11.10
2019-01-19T13:32:35.042Z,10.50
2019-01-19T13:33:35.012Z,7.20
2019-01-19T13:34:35.012Z,6.40
2019-01-19T13:35:35.009Z,6.20
2019-01-19T13:36:34.974Z,6.90
2019-01-19T13:37:34.959Z,10.50
2019-01-19T13:38:41.600Z,9.10
2019-01-19T13:39:35.939Z,6.70
2019-01-19T13:40:34.950Z,7.30
2019-01-19T13:41:34.915Z,7.00
2019-01-19T13:42:34.908Z,6.20
2019-01-19T13:43:34.895Z,7.20
2019-01-19T13:44:34.884Z,6.60
2019-01-19T13:45:34.900Z,7.50
2019-01-19T13:46:34.863Z,6.70
2019-01-19T13:47:34.851Z,8.40
2019-01-19T13:48:34.844Z,8.70
2019-01-19T13:49:34.832Z,8.10
2019-01-19T13:50:34.842Z,7.20
2019-01-19T13:51:34.806Z,9.10
2019-01-19T13:52:34.798Z,6.50
2019-01-19T13:53:34.783Z,6.90
2019-01-19T13:54:34.775Z,7.10
2019-01-19T13:55:34.766Z,7.40
2019-01-19T13:56:34.832Z,7.90
2019-01-19T13:57:34.742Z,6.90
2019-01-19T13:58:34.735Z,7.70
2019-01-19T13:59:34.719Z,7.20
2019-01-19T14:00:34.713Z,7.20
2019-01-19T14:01:34.722Z,6.40
2019-01-19T14:02:34.689Z,7.20
2019-01-19T14:03:34.677Z,5.50
2019-01-19T14:04:34.669Z,5.60
2019-01-19T14:05:34.659Z,7.60
2019-01-19T14:06:34.669Z,7.20
2019-01-19T14:07:34.635Z,5.00
2019-01-19T14:08:34.625Z,4.80
2019-01-19T14:09:34.614Z,4.70
2019-01-19T14:10:34.601Z,6.60
2019-01-19T14:11:34.621Z,6.70
2019-01-19T14:12:34.578Z,7.50
2019-01-19T14:13:34.595Z,6.60
2019-01-19T14:14:34.561Z,6.70
2019-01-19T14:15:34.545Z,8.40
2019-01-19T14:16:34.561Z,4.10
2019-01-19T14:17:34.524Z,6.50
2019-01-19T14:18:34.528Z,5.60
2019-01-19T14:19:34.502Z,5.30
2019-01-19T14:20:34.488Z,5.00
2019-01-19T14:21:35.305Z,5.10
2019-01-19T14:22:34.466Z,4.90
2019-01-19T14:23:34.453Z,5.30
2019-01-19T14:24:34.471Z,5.20
2019-01-19T14:25:34.432Z,4.80
2019-01-19T14:26:34.441Z,5.30
2019-01-19T14:27:34.413Z,6.20
2019-01-19T14:28:34.400Z,5.30
2019-01-19T14:29:34.389Z,8.10
2019-01-19T14:30:34.383Z,5.90
2019-01-19T14:31:34.398Z,5.30
2019-01-19T14:32:34.366Z,5.40
2019-01-19T14:33:34.347Z,7.40
2019-01-19T14:34:34.335Z,4.50
2019-01-19T14:35:34.324Z,7.10
2019-01-19T14:36:34.341Z,4.40
2019-01-19T14:37:34.301Z,5.20
2019-01-19T14:38:34.292Z,7.40
2019-01-19T14:39:34.283Z,4.80
2019-01-19T14:40:34.271Z,6.30
2019-01-19T14:41:34.258Z,5.50
2019-01-19T14:42:34.297Z,6.20
2019-01-19T14:43:34.236Z,4.40
2019-01-19T14:44:34.231Z,7.40
2019-01-19T14:45:34.216Z,5.90
2019-01-19T14:46:34.205Z,7.40
2019-01-19T14:47:34.221Z,6.30
2019-01-19T14:48:34.186Z,7.30
2019-01-19T14:49:34.179Z,6.60
2019-01-19T14:50:34.161Z,6.10
2019-01-19T14:51:34.157Z,7.00
2019-01-19T14:52:34.165Z,6.00
2019-01-19T14:53:34.129Z,5.00
2019-01-19T14:54:34.120Z,7.00
2019-01-19T14:55:34.103Z,7.40
2019-01-19T14:56:34.093Z,4.90
2019-01-19T14:57:34.110Z,6.40
2019-01-19T14:58:34.072Z,6.20
2019-01-19T14:59:34.061Z,4.90
2019-01-19T15:00:34.047Z,7.00
2019-01-19T15:01:34.038Z,6.20
2019-01-19T15:02:34.057Z,6.40
2019-01-19T15:03:35.189Z,7.60
2019-01-19T15:04:34.014Z,5.80
2019-01-19T15:05:33.999Z,5.90
2019-01-19T15:06:33.994Z,4.90
2019-01-19T15:07:33.975Z,5.20
2019-01-19T15:08:33.986Z,6.70
2019-01-19T15:09:33.956Z,6.90
2019-01-19T15:10:33.944Z,5.10
2019-01-19T15:11:33.933Z,6.50
2019-01-19T15:12:33.922Z,8.20
2019-01-19T15:13:35.813Z,5.90
2019-01-19T15:14:33.897Z,6.80
2019-01-19T15:15:33.887Z,5.90
2019-01-19T15:16:33.876Z,9.20
2019-01-19T15:17:33.866Z,6.20
2019-01-19T15:18:33.879Z,8.60
2019-01-19T15:19:33.845Z,5.20
2019-01-19T15:20:33.833Z,8.30
2019-01-19T15:21:33.820Z,6.90
2019-01-19T15:22:33.811Z,7.20
2019-01-19T15:23:33.819Z,6.20
2019-01-19T15:24:33.787Z,5.50
2019-01-19T15:25:33.778Z,7.00
2019-01-19T15:26:33.766Z,6.90
2019-01-19T15:27:33.754Z,6.90
2019-01-19T15:28:33.766Z,7.90
2019-01-19T15:29:33.736Z,8.20
2019-01-19T15:30:33.722Z,5.60
2019-01-19T15:31:33.711Z,7.20
2019-01-19T15:32:33.702Z,9.30
2019-01-19T15:33:34.320Z,7.30
2019-01-19T15:34:33.680Z,7.00
2019-01-19T15:35:33.670Z,8.20
2019-01-19T15:36:33.661Z,7.40
2019-01-19T15:37:33.646Z,8.00
2019-01-19T15:38:33.663Z,7.80
2019-01-19T15:39:33.647Z,5.20
2019-01-19T15:40:33.614Z,16.90
2019-01-19T15:41:33.606Z,12.80
2019-01-19T15:42:33.590Z,7.60
2019-01-19T15:43:33.580Z,5.20
2019-01-19T15:44:33.599Z,7.60
2019-01-19T15:45:33.562Z,6.20
2019-01-19T15:46:33.548Z,6.20
2019-01-19T15:47:33.537Z,5.50
2019-01-19T15:48:33.531Z,6.90
2019-01-19T15:49:33.515Z,5.10
2019-01-19T15:50:33.528Z,6.80
2019-01-19T15:51:33.490Z,6.90
2019-01-19T15:52:33.483Z,5.50
2019-01-19T15:53:33.469Z,6.00
2019-01-19T15:54:33.457Z,8.20
2019-01-19T15:55:33.468Z,5.90
2019-01-19T15:56:33.436Z,5.40
2019-01-19T15:57:33.426Z,5.30
2019-01-19T15:58:33.410Z,6.50
2019-01-19T15:59:34.313Z,5.70
2019-01-19T16:00:33.395Z,7.40
2019-01-19T16:01:33.403Z,8.40
2019-01-19T16:02:33.372Z,8.10
2019-01-19T16:03:33.359Z,5.50
2019-01-19T16:04:33.350Z,7.20
2019-01-19T16:05:33.366Z,6.60
2019-01-19T16:06:33.327Z,5.80
2019-01-19T16:07:33.318Z,7.60
2019-01-19T16:08:33.306Z,8.90
2019-01-19T16:09:33.296Z,5.80
2019-01-19T16:10:33.308Z,7.30
2019-01-19T16:11:33.272Z,7.50
2019-01-19T16:12:33.261Z,8.80
2019-01-19T16:13:33.252Z,8.30
2019-01-19T16:14:33.240Z,10.50
2019-01-19T16:15:33.255Z,10.20
2019-01-19T16:16:33.224Z,10.20
2019-01-19T16:17:33.212Z,8.70
2019-01-19T16:18:33.194Z,7.00
2019-01-19T16:19:33.191Z,8.20
2019-01-19T16:20:33.198Z,7.90
2019-01-19T16:21:33.163Z,8.90
2019-01-19T16:22:33.152Z,9.10
2019-01-19T16:23:33.144Z,10.30
2019-01-19T16:24:33.130Z,8.70
2019-01-19T16:25:33.155Z,8.10
2019-01-19T16:26:33.110Z,7.40
2019-01-19T16:27:33.100Z,6.70
2019-01-19T16:28:33.093Z,6.60
2019-01-19T16:29:33.073Z,8.00
2019-01-19T16:30:33.086Z,8.80
2019-01-19T16:31:33.047Z,9.90
2019-01-19T16:32:33.038Z,8.10
2019-01-19T16:33:33.033Z,6.60